Time;durP1;ratioP1;P1;durP2;ratioP2;P2;SDS_P1;SDS_P2;PMS_P1;PMS_P2;Temp;Humidity;BMP_temperature;BMP_pressure;BME280_temperature;BME280_humidity;BME280_pressure;Samples;Min_cycle;Max_cycle;Signal;HPM_P1;HPM_P2
2022/11/23 00:00:29;;;;;;;9.38;4.30;;;6.20;99.90;;;;;;5064963;28;20085;-71
2022/11/23 00:02:56;;;;;;;8.68;4.10;;;6.10;99.90;;;;;;5052847;28;20071;-73
2022/11/23 00:05:22;;;;;;;8.18;4.43;;;5.90;99.90;;;;;;5056050;28;20037;-73
2022/11/23 00:07:48;;;;;;;9.43;4.68;;;5.80;99.90;;;;;;5061103;28;20394;-73
2022/11/23 00:10:13;;;;;;;11.07;4.30;;;5.70;99.90;;;;;;5050039;28;20060;-73
2022/11/23 00:12:39;;;;;;;11.75;4.75;;;5.60;99.90;;;;;;5068208;28;20028;-73
2022/11/23 00:15:06;;;;;;;10.85;5.53;;;5.50;99.90;;;;;;5067496;28;20497;-73
2022/11/23 00:17:32;;;;;;;9.40;4.63;;;5.50;99.90;;;;;;5067732;28;20033;-73
2022/11/23 00:19:57;;;;;;;12.60;5.13;;;5.40;99.90;;;;;;5068076;28;20032;-73
2022/11/23 00:22:23;;;;;;;10.20;5.15;;;5.30;99.90;;;;;;5067927;28;20041;-74
2022/11/23 00:24:49;;;;;;;10.02;4.93;;;5.20;99.90;;;;;;5068464;28;20035;-73
2022/11/23 00:27:14;;;;;;;11.15;4.90;;;5.10;99.90;;;;;;5049653;28;20064;-72
2022/11/23 00:29:40;;;;;;;10.27;4.75;;;5.10;99.90;;;;;;5063690;28;20040;-74
2022/11/23 00:32:05;;;;;;;12.10;5.15;;;5.10;99.90;;;;;;5066663;28;20043;-72
2022/11/23 00:34:31;;;;;;;14.65;6.00;;;5.10;99.90;;;;;;5045474;28;20028;-73
2022/11/23 00:36:57;;;;;;;10.80;5.07;;;5.10;99.90;;;;;;5066609;28;20166;-73
2022/11/23 00:39:22;;;;;;;15.00;5.30;;;5.00;99.90;;;;;;5066855;28;20722;-71
2022/11/23 00:41:48;;;;;;;12.30;4.53;;;5.00;99.90;;;;;;5067464;28;20039;-74
2022/11/23 00:44:13;;;;;;;13.45;4.80;;;5.10;99.90;;;;;;5068289;28;20039;-72
2022/11/23 00:46:39;;;;;;;9.48;4.75;;;5.20;99.90;;;;;;5049520;28;20186;-73
2022/11/23 00:49:05;;;;;;;14.23;5.72;;;5.20;99.90;;;;;;5050355;28;20032;-72
2022/11/23 00:51:33;;;;;;;13.65;5.40;;;5.30;99.90;;;;;;5047884;28;20052;-73
2022/11/23 00:54:00;;;;;;;13.02;5.25;;;5.30;99.90;;;;;;5047052;28;20037;-73
2022/11/23 00:56:27;;;;;;;15.27;5.53;;;5.30;99.90;;;;;;5066149;28;20063;-71
2022/11/23 00:58:54;;;;;;;14.68;5.70;;;5.30;99.90;;;;;;5067062;28;20078;-73
2022/11/23 01:01:23;;;;;;;14.75;6.35;;;5.40;99.90;;;;;;5067503;28;20108;-73
2022/11/23 01:03:51;;;;;;;12.70;6.50;;;5.30;99.90;;;;;;5045312;28;20083;-73
2022/11/23 01:06:20;;;;;;;11.82;6.20;;;5.30;99.90;;;;;;5048913;28;20025;-74
2022/11/23 01:09:01;;;;;;;11.63;5.35;;;5.30;99.90;;;;;;5066005;28;20039;-73
2022/11/23 01:11:28;;;;;;;13.80;6.50;;;5.40;99.90;;;;;;5047109;28;20067;-72
2022/11/23 01:13:54;;;;;;;14.20;6.68;;;5.40;99.90;;;;;;5066995;28;20059;-72
2022/11/23 01:16:24;;;;;;;12.13;5.57;;;5.40;99.90;;;;;;5064937;28;20040;-72
2022/11/23 01:18:57;;;;;;;10.65;5.50;;;5.50;99.90;;;;;;5064983;28;20036;-72
2022/11/23 01:21:24;;;;;;;11.95;5.75;;;5.60;99.90;;;;;;5065104;28;20206;-72
2022/11/23 01:23:50;;;;;;;12.00;5.45;;;5.70;99.90;;;;;;5044361;28;20035;-72
2022/11/23 01:26:16;;;;;;;10.57;5.53;;;5.80;99.90;;;;;;5062003;28;20135;-72
2022/11/23 01:28:42;;;;;;;13.60;6.15;;;5.80;99.90;;;;;;5063707;28;20116;-72
2022/11/23 01:31:15;;;;;;;10.85;5.28;;;5.90;99.90;;;;;;5063697;28;20017;-72
2022/11/23 01:33:40;;;;;;;13.75;5.88;;;5.90;99.90;;;;;;5047220;28;20155;-71
2022/11/23 01:36:14;;;;;;;13.07;6.38;;;6.00;99.90;;;;;;5047549;28;20122;-72
2022/11/23 01:38:41;;;;;;;14.48;5.85;;;6.00;99.90;;;;;;5056122;28;20029;-72
2022/11/23 01:41:10;;;;;;;14.43;5.20;;;6.00;99.90;;;;;;5067708;28;20077;-72
2022/11/23 01:43:36;;;;;;;12.00;4.97;;;6.00;99.90;;;;;;5066105;28;20032;-71
2022/11/23 01:46:03;;;;;;;9.55;4.70;;;6.00;99.90;;;;;;5048836;28;20269;-72
2022/11/23 01:48:37;;;;;;;13.07;5.35;;;5.90;99.90;;;;;;5065957;28;20032;-71
2022/11/23 01:51:26;;;;;;;15.52;5.25;;;5.80;99.90;;;;;;5048023;28;20024;-71
2022/11/23 01:53:53;;;;;;;15.13;5.43;;;5.70;99.90;;;;;;5067898;28;20438;-73
2022/11/23 01:56:25;;;;;;;13.75;4.60;;;5.70;99.90;;;;;;5064272;28;20033;-73
2022/11/23 01:58:55;;;;;;;11.98;5.00;;;5.60;99.90;;;;;;5067096;28;20043;-73
2022/11/23 02:01:21;;;;;;;11.88;5.00;;;5.60;99.90;;;;;;5067456;28;20028;-74
2022/11/23 02:03:47;;;;;;;13.85;5.45;;;5.50;99.90;;;;;;5051139;28;20449;-72
2022/11/23 02:06:16;;;;;;;10.88;4.75;;;5.40;99.90;;;;;;5065811;28;20270;-74
2022/11/23 02:08:43;;;;;;;14.02;5.57;;;5.40;99.90;;;;;;5065874;28;20542;-73
2022/11/23 02:11:11;;;;;;;10.40;5.43;;;5.30;99.90;;;;;;5064698;28;20037;-72
2022/11/23 02:13:37;;;;;;;10.98;4.90;;;5.20;99.90;;;;;;5064062;28;20035;-73
2022/11/23 02:16:03;;;;;;;11.23;5.32;;;5.20;99.90;;;;;;5064099;28;20028;-73
2022/11/23 02:18:31;;;;;;;12.85;5.15;;;5.30;99.90;;;;;;5056466;28;20115;-73
2022/11/23 02:21:01;;;;;;;11.50;4.88;;;5.40;99.90;;;;;;5047345;28;20112;-73
2022/11/23 02:23:31;;;;;;;13.65;5.45;;;5.40;99.90;;;;;;5065327;28;20029;-73
2022/11/23 02:26:05;;;;;;;9.43;4.50;;;5.40;99.90;;;;;;5064697;28;20036;-73
2022/11/23 02:28:45;;;;;;;12.55;5.95;;;5.40;99.90;;;;;;5056492;28;20029;-72
2022/11/23 02:31:11;;;;;;;20.60;6.03;;;5.30;99.90;;;;;;5033473;28;20029;-73
2022/11/23 02:33:38;;;;;;;13.48;6.38;;;5.30;99.90;;;;;;5058248;28;20043;-72
2022/11/23 02:36:26;;;;;;;11.55;5.57;;;5.20;99.90;;;;;;5064199;28;20081;-71
2022/11/23 02:38:53;;;;;;;14.13;5.75;;;5.10;99.90;;;;;;5058858;28;20040;-71
2022/11/23 02:41:19;;;;;;;15.38;6.63;;;5.10;99.90;;;;;;5064064;28;20461;-71
2022/11/23 02:43:46;;;;;;;13.77;6.70;;;5.10;99.90;;;;;;5064131;28;20034;-74
2022/11/23 02:46:12;;;;;;;17.13;8.38;;;5.10;99.90;;;;;;5045950;28;20036;-73
2022/11/23 02:48:37;;;;;;;17.42;7.53;;;5.10;99.90;;;;;;5062215;28;20040;-74
2022/11/23 02:51:03;;;;;;;12.68;6.05;;;5.10;99.90;;;;;;5065208;28;20352;-73
2022/11/23 02:53:29;;;;;;;17.27;7.13;;;5.10;99.90;;;;;;5045462;28;20671;-73
2022/11/23 02:55:54;;;;;;;16.80;7.78;;;5.20;99.90;;;;;;5064136;28;20089;-74
2022/11/23 02:58:20;;;;;;;17.27;8.00;;;5.20;99.90;;;;;;5046157;28;20037;-74
2022/11/23 03:00:45;;;;;;;14.32;6.95;;;5.30;99.90;;;;;;5050011;28;20033;-73
2022/11/23 03:03:11;;;;;;;17.98;7.65;;;5.40;99.90;;;;;;5065574;28;20040;-74
2022/11/23 03:05:37;;;;;;;18.10;7.40;;;5.50;99.90;;;;;;5061750;28;20840;-73
2022/11/23 03:08:02;;;;;;;17.95;8.23;;;5.50;99.90;;;;;;5046286;28;20428;-73
2022/11/23 03:10:28;;;;;;;18.23;7.95;;;5.50;99.90;;;;;;5063261;28;20028;-74
2022/11/23 03:12:55;;;;;;;20.08;7.80;;;5.50;99.90;;;;;;5063359;28;20429;-72
2022/11/23 03:15:21;;;;;;;17.50;7.47;;;5.40;99.90;;;;;;5064046;28;20029;-73
2022/11/23 03:17:47;;;;;;;19.38;7.82;;;5.50;99.90;;;;;;5064262;28;20116;-74
2022/11/23 03:20:12;;;;;;;16.98;7.35;;;5.50;99.90;;;;;;5060109;28;20117;-73
2022/11/23 03:22:38;;;;;;;14.18;6.32;;;5.50;99.90;;;;;;5046248;28;20048;-72
2022/11/23 03:25:04;;;;;;;14.63;7.38;;;5.60;99.90;;;;;;5064531;28;20135;-72
2022/11/23 03:27:32;;;;;;;15.27;7.32;;;5.60;99.90;;;;;;5061669;28;20509;-73
2022/11/23 03:29:58;;;;;;;14.45;6.15;;;5.60;99.90;;;;;;5061562;28;20841;-72
2022/11/23 03:32:23;;;;;;;13.68;7.35;;;5.70;99.90;;;;;;5063499;28;20067;-73
2022/11/23 03:34:49;;;;;;;17.10;7.25;;;5.70;99.90;;;;;;5045865;28;20033;-72
2022/11/23 03:37:15;;;;;;;16.13;6.60;;;5.60;99.90;;;;;;5064074;28;20544;-72
2022/11/23 03:39:40;;;;;;;14.93;6.35;;;5.60;99.90;;;;;;5063830;28;20024;-72
2022/11/23 03:42:06;;;;;;;13.13;5.88;;;5.50;99.90;;;;;;5064640;28;20079;-72
2022/11/23 03:44:31;;;;;;;11.98;4.70;;;5.50;99.90;;;;;;5066866;28;20032;-72
2022/11/23 03:46:58;;;;;;;21.23;2.90;;;5.60;99.90;;;;;;5050138;28;20037;-73
2022/11/23 03:49:23;;;;;;;24.92;2.50;;;5.80;99.90;;;;;;5068597;28;20097;-74
2022/11/23 03:51:49;;;;;;;13.93;1.92;;;6.20;99.90;;;;;;5067956;28;20456;-73
2022/11/23 03:54:15;;;;;;;19.13;2.58;;;6.80;99.90;;;;;;5069249;28;20044;-71
2022/11/23 03:56:40;;;;;;;17.75;2.05;;;7.30;99.90;;;;;;5067269;28;20040;-72
2022/11/23 03:59:06;;;;;;;17.02;1.90;;;7.60;99.90;;;;;;5067087;28;20059;-72
2022/11/23 04:01:32;;;;;;;15.38;2.15;;;7.90;99.90;;;;;;5066385;28;20391;-72
2022/11/23 04:03:57;;;;;;;11.75;1.50;;;8.10;99.90;;;;;;5049318;28;20040;-74
2022/11/23 04:06:23;;;;;;;17.02;2.10;;;8.30;99.90;;;;;;5048302;28;20085;-72
2022/11/23 04:08:48;;;;;;;14.38;1.77;;;8.40;99.90;;;;;;5067728;28;20033;-71
2022/11/23 04:11:14;;;;;;;13.65;1.83;;;8.50;99.90;;;;;;5067776;28;20033;-72
2022/11/23 04:13:39;;;;;;;14.73;1.92;;;8.70;99.90;;;;;;5049531;28;20040;-73
2022/11/23 04:16:06;;;;;;;12.80;2.00;;;8.70;99.90;;;;;;5054111;28;20028;-73
2022/11/23 04:18:32;;;;;;;12.35;1.40;;;8.80;99.90;;;;;;5068318;28;20029;-71
2022/11/23 04:20:57;;;;;;;12.82;1.40;;;8.90;99.90;;;;;;5066627;28;20037;-72
2022/11/23 04:23:23;;;;;;;11.80;1.50;;;8.90;99.90;;;;;;5050301;28;20082;-74
2022/11/23 04:25:49;;;;;;;16.58;2.22;;;8.90;99.90;;;;;;5066694;28;20044;-74
2022/11/23 04:28:14;;;;;;;14.57;2.15;;;9.00;99.90;;;;;;5069059;28;20033;-72
2022/11/23 04:30:40;;;;;;;12.27;2.25;;;9.00;99.90;;;;;;5063511;28;20059;-74
2022/11/23 04:33:05;;;;;;;15.20;2.05;;;9.10;99.90;;;;;;5061324;28;20120;-74
2022/11/23 04:35:33;;;;;;;12.55;1.83;;;9.20;99.90;;;;;;5047812;28;20818;-73
2022/11/23 04:37:58;;;;;;;7.82;1.67;;;9.30;99.90;;;;;;5047358;28;20036;-74
2022/11/23 04:40:24;;;;;;;12.15;1.60;;;9.30;99.90;;;;;;5048241;28;20054;-72
2022/11/23 04:42:50;;;;;;;11.25;2.05;;;9.40;99.90;;;;;;5066820;28;20044;-74
2022/11/23 04:45:15;;;;;;;14.05;2.03;;;9.40;99.90;;;;;;5066321;28;20040;-71
2022/11/23 04:47:41;;;;;;;11.55;1.90;;;9.50;99.90;;;;;;5061490;28;20040;-73
2022/11/23 04:50:07;;;;;;;14.65;2.20;;;9.60;99.90;;;;;;5066762;28;20032;-73
2022/11/23 04:52:32;;;;;;;12.43;1.73;;;9.80;99.90;;;;;;5062179;28;20725;-72
2022/11/23 04:54:58;;;;;;;12.77;1.60;;;9.80;99.90;;;;;;5036106;28;20064;-72
2022/11/23 04:57:23;;;;;;;16.98;1.98;;;9.90;99.90;;;;;;5046822;28;20041;-72
2022/11/23 04:59:49;;;;;;;12.93;1.73;;;10.10;99.90;;;;;;5066871;28;20097;-73
2022/11/23 05:02:15;;;;;;;13.50;1.83;;;10.10;99.90;;;;;;5067231;28;20063;-72
2022/11/23 05:04:40;;;;;;;9.73;1.17;;;10.10;99.90;;;;;;5067740;28;20039;-71
2022/11/23 05:07:06;;;;;;;12.45;1.52;;;10.20;99.90;;;;;;5066723;28;20071;-74
2022/11/23 05:09:31;;;;;;;13.02;2.00;;;10.30;99.90;;;;;;5067911;28;20034;-72
2022/11/23 05:11:57;;;;;;;17.83;1.90;;;10.30;99.90;;;;;;5067720;28;20064;-73
2022/11/23 05:14:23;;;;;;;10.77;2.00;;;10.40;99.90;;;;;;5064338;28;20098;-73
2022/11/23 05:16:49;;;;;;;13.52;1.45;;;10.40;99.90;;;;;;5069466;28;20029;-74
2022/11/23 05:19:14;;;;;;;10.32;1.30;;;10.30;99.90;;;;;;5051429;28;20578;-73
2022/11/23 05:21:40;;;;;;;10.55;1.67;;;10.40;99.90;;;;;;5048747;28;20085;-73
2022/11/23 05:24:06;;;;;;;12.75;1.83;;;10.50;99.90;;;;;;5049185;28;20120;-73
2022/11/23 05:26:31;;;;;;;12.63;1.80;;;10.50;99.90;;;;;;5065196;28;20040;-73
2022/11/23 05:28:57;;;;;;;13.00;1.98;;;10.50;99.90;;;;;;5063760;28;20034;-72
2022/11/23 05:31:22;;;;;;;12.05;1.90;;;10.60;99.90;;;;;;5064261;28;20078;-72
2022/11/23 05:33:48;;;;;;;11.18;1.75;;;10.70;99.90;;;;;;5065425;28;20480;-73
2022/11/23 05:36:14;;;;;;;14.70;1.75;;;10.80;99.90;;;;;;5064921;28;20036;-73
2022/11/23 05:38:40;;;;;;;13.05;2.13;;;10.80;99.90;;;;;;5066269;28;20479;-71
2022/11/23 05:41:06;;;;;;;10.68;1.42;;;10.90;99.90;;;;;;5065690;28;20122;-73
2022/11/23 05:43:32;;;;;;;9.30;1.40;;;10.90;99.90;;;;;;5058899;28;20035;-72
2022/11/23 05:45:59;;;;;;;11.30;1.42;;;11.00;99.90;;;;;;5062048;28;20032;-73
2022/11/23 05:48:25;;;;;;;7.03;1.25;;;11.00;99.90;;;;;;5047889;28;20029;-72
2022/11/23 05:50:51;;;;;;;13.32;1.83;;;11.10;99.90;;;;;;5054077;28;20398;-73
2022/11/23 05:53:16;;;;;;;9.77;1.83;;;11.10;99.90;;;;;;5058163;28;20442;-72
2022/11/23 05:55:42;;;;;;;9.43;1.63;;;11.10;99.90;;;;;;5064372;28;20047;-72
2022/11/23 05:58:08;;;;;;;13.60;1.65;;;11.20;99.90;;;;;;5066018;28;20115;-73
2022/11/23 06:00:33;;;;;;;16.05;1.92;;;11.20;99.90;;;;;;5064730;28;20028;-71
2022/11/23 06:03:00;;;;;;;9.52;1.80;;;11.20;99.90;;;;;;5064263;28;20031;-72
2022/11/23 06:05:26;;;;;;;11.02;1.85;;;11.20;99.90;;;;;;5055343;28;20040;-71
2022/11/23 06:07:52;;;;;;;12.20;1.95;;;11.20;99.90;;;;;;5066381;28;20386;-71
2022/11/23 06:10:18;;;;;;;12.02;1.58;;;11.20;99.90;;;;;;5070297;28;20032;-72
2022/11/23 06:12:44;;;;;;;12.30;1.75;;;11.20;99.90;;;;;;5047015;28;20032;-73
2022/11/23 06:15:10;;;;;;;10.75;1.55;;;11.20;99.90;;;;;;5064012;28;20107;-73
2022/11/23 06:17:36;;;;;;;12.35;2.40;;;11.20;99.90;;;;;;5065426;28;20451;-72
2022/11/23 06:20:03;;;;;;;12.25;2.03;;;11.30;99.90;;;;;;5046070;28;20032;-74
2022/11/23 06:22:28;;;;;;;12.77;2.63;;;11.30;99.90;;;;;;5068079;28;20028;-72
2022/11/23 06:24:54;;;;;;;11.55;1.70;;;11.30;99.90;;;;;;5064442;28;20541;-73
2022/11/23 06:27:19;;;;;;;14.85;1.70;;;11.20;99.90;;;;;;5064650;28;20044;-73
2022/11/23 06:29:46;;;;;;;12.82;1.73;;;11.10;99.90;;;;;;5062070;28;20035;-74
2022/11/23 06:32:11;;;;;;;13.05;2.08;;;11.00;99.90;;;;;;5059891;28;20073;-72
2022/11/23 06:34:37;;;;;;;13.38;1.85;;;11.10;99.90;;;;;;5060497;28;20037;-72
2022/11/23 06:37:02;;;;;;;14.27;1.60;;;11.10;99.90;;;;;;5060323;28;20090;-72
2022/11/23 06:39:28;;;;;;;17.58;2.92;;;11.10;99.90;;;;;;5047203;28;20089;-72
2022/11/23 06:41:54;;;;;;;17.58;2.58;;;11.20;99.90;;;;;;5064835;28;20036;-70
2022/11/23 06:44:19;;;;;;;11.02;1.95;;;11.20;99.90;;;;;;5057242;28;20445;-71
2022/11/23 06:46:45;;;;;;;11.88;1.75;;;11.20;99.90;;;;;;5044281;28;20585;-73
2022/11/23 06:49:10;;;;;;;9.40;1.35;;;11.30;99.90;;;;;;5046249;28;20032;-71
2022/11/23 06:51:36;;;;;;;8.93;1.38;;;11.30;99.90;;;;;;5066689;28;20705;-72
2022/11/23 06:54:02;;;;;;;10.00;1.77;;;11.20;99.90;;;;;;5052960;28;20125;-72
2022/11/23 06:56:27;;;;;;;8.55;1.23;;;11.10;99.90;;;;;;5063947;28;20127;-72
2022/11/23 06:58:53;;;;;;;16.70;1.77;;;11.10;99.90;;;;;;5064544;28;20064;-72
2022/11/23 07:01:18;;;;;;;12.32;2.20;;;11.10;99.90;;;;;;5062016;28;21818;-73
2022/11/23 07:03:44;;;;;;;12.95;1.67;;;11.00;99.90;;;;;;5065198;28;20025;-72
2022/11/23 07:06:09;;;;;;;17.73;1.98;;;10.90;99.90;;;;;;5047159;28;20044;-72
2022/11/23 07:08:38;;;;;;;13.65;2.40;;;10.90;99.90;;;;;;5042993;28;20040;-71
2022/11/23 07:11:05;;;;;;;13.82;3.20;;;10.90;99.90;;;;;;5045457;28;20120;-72
2022/11/23 07:13:31;;;;;;;16.25;2.88;;;10.90;99.90;;;;;;5064236;28;20641;-69
2022/11/23 07:15:58;;;;;;;12.80;3.13;;;10.90;99.90;;;;;;5061708;28;20040;-72
2022/11/23 07:18:24;;;;;;;17.17;2.58;;;10.70;99.90;;;;;;5050213;28;20033;-72
2022/11/23 07:20:50;;;;;;;15.00;2.97;;;10.60;99.90;;;;;;5066447;28;21136;-74
2022/11/23 07:23:16;;;;;;;18.60;2.97;;;10.50;99.90;;;;;;5067826;28;20534;-76
2022/11/23 07:25:41;;;;;;;22.52;3.03;;;10.50;99.90;;;;;;5067656;28;20028;-77
2022/11/23 07:28:10;;;;;;;15.52;2.72;;;10.40;99.90;;;;;;5068276;28;20035;-75
2022/11/23 07:30:36;;;;;;;14.20;2.80;;;10.40;99.90;;;;;;5066972;28;20032;-78
2022/11/23 07:33:04;;;;;;;15.18;2.15;;;10.40;99.90;;;;;;5054693;28;20043;-74
2022/11/23 07:35:31;;;;;;;12.90;2.53;;;10.30;99.90;;;;;;5072652;28;20042;-73
2022/11/23 07:37:57;;;;;;;15.65;2.60;;;10.30;99.90;;;;;;5065913;28;20127;-76
2022/11/23 07:40:23;;;;;;;10.15;2.05;;;10.40;99.90;;;;;;5067536;28;20132;-79
2022/11/23 07:42:48;;;;;;;15.20;2.80;;;10.40;99.90;;;;;;5048815;28;20040;-79
2022/11/23 07:45:14;;;;;;;13.40;2.85;;;10.40;99.90;;;;;;5054579;28;20028;-81
2022/11/23 07:47:40;;;;;;;15.25;2.28;;;10.40;99.90;;;;;;5053533;28;20225;-80
2022/11/23 07:50:08;;;;;;;14.63;2.67;;;10.40;99.90;;;;;;5067768;28;20033;-75
2022/11/23 07:52:35;;;;;;;17.00;2.72;;;10.40;99.90;;;;;;5067047;28;20023;-72
2022/11/23 07:55:01;;;;;;;15.32;2.70;;;10.40;99.90;;;;;;5049627;28;20060;-77
2022/11/23 07:57:27;;;;;;;9.32;2.40;;;10.50;99.90;;;;;;5045966;28;20507;-74
2022/11/23 07:59:52;;;;;;;14.55;2.78;;;10.50;99.90;;;;;;5062836;28;20024;-72
2022/11/23 08:02:18;;;;;;;15.10;3.25;;;10.50;99.90;;;;;;5062258;28;20040;-75
2022/11/23 08:04:43;;;;;;;16.25;3.50;;;10.50;99.90;;;;;;5048963;28;20055;-79
2022/11/23 08:07:09;;;;;;;15.73;3.95;;;10.50;99.90;;;;;;5066328;28;20044;-74
2022/11/23 08:09:35;;;;;;;16.38;4.05;;;10.50;99.90;;;;;;5047512;28;20028;-76
2022/11/23 08:12:01;;;;;;;19.60;3.92;;;10.60;99.90;;;;;;5041626;28;20495;-73
2022/11/23 08:14:26;;;;;;;19.70;3.95;;;10.60;99.90;;;;;;5056843;28;20032;-72
2022/11/23 08:16:52;;;;;;;18.75;4.10;;;10.60;99.90;;;;;;5058131;28;20619;-76
2022/11/23 08:19:18;;;;;;;11.75;3.67;;;10.70;99.90;;;;;;5042879;28;20039;-74
2022/11/23 08:21:44;;;;;;;13.85;2.97;;;10.70;99.90;;;;;;5064348;28;20059;-77
2022/11/23 08:24:10;;;;;;;15.38;3.17;;;10.70;99.90;;;;;;5064841;28;20107;-79
2022/11/23 08:26:36;;;;;;;15.95;2.63;;;10.70;99.90;;;;;;5060550;28;20040;-73
2022/11/23 08:29:02;;;;;;;14.57;2.90;;;10.80;99.90;;;;;;5040581;28;20122;-76
2022/11/23 08:31:28;;;;;;;15.80;3.15;;;10.80;99.90;;;;;;5038351;28;20025;-73
2022/11/23 08:33:53;;;;;;;23.98;3.38;;;10.90;99.90;;;;;;5065351;28;20043;-75
2022/11/23 08:36:19;;;;;;;14.80;2.20;;;10.90;99.90;;;;;;5046759;28;20029;-72
2022/11/23 08:38:45;;;;;;;19.75;2.20;;;11.00;99.90;;;;;;5048958;28;20055;-72
2022/11/23 08:41:10;;;;;;;12.23;2.10;;;11.10;99.90;;;;;;5065963;28;20551;-75
2022/11/23 08:43:36;;;;;;;16.48;2.63;;;11.20;99.90;;;;;;5044078;28;20080;-75
2022/11/23 08:46:03;;;;;;;10.68;2.28;;;11.20;99.90;;;;;;5047401;28;20087;-74
2022/11/23 08:48:29;;;;;;;20.15;2.60;;;11.20;99.90;;;;;;5047247;28;20111;-75
2022/11/23 08:50:59;;;;;;;18.10;3.28;;;11.30;99.90;;;;;;5046163;28;20123;-76
2022/11/23 08:53:26;;;;;;;13.82;2.25;;;11.40;99.90;;;;;;5065386;28;20032;-74
2022/11/23 08:55:52;;;;;;;19.20;2.33;;;11.40;99.90;;;;;;5062667;28;20021;-75
2022/11/23 08:58:18;;;;;;;11.63;1.90;;;11.40;99.90;;;;;;5073030;28;20089;-75
2022/11/23 09:00:44;;;;;;;13.25;1.90;;;11.40;99.90;;;;;;5046518;28;20029;-75
2022/11/23 09:03:10;;;;;;;12.60;1.80;;;11.40;99.90;;;;;;5051377;28;20078;-75
2022/11/23 09:05:37;;;;;;;9.80;1.48;;;11.50;99.90;;;;;;5066518;28;20046;-75
2022/11/23 09:08:03;;;;;;;13.70;1.60;;;11.50;99.90;;;;;;5064009;28;20028;-74
2022/11/23 09:10:29;;;;;;;17.83;1.98;;;11.50;99.90;;;;;;5064921;28;20368;-75
2022/11/23 09:12:54;;;;;;;7.38;1.17;;;11.60;99.90;;;;;;5064992;28;20043;-74
2022/11/23 09:15:20;;;;;;;4.60;0.60;;;11.60;99.90;;;;;;5045705;28;20037;-74
2022/11/23 09:17:46;;;;;;;11.38;1.42;;;11.70;99.90;;;;;;5046982;28;20039;-75
2022/11/23 09:20:12;;;;;;;9.05;1.08;;;11.60;99.90;;;;;;5063703;28;20445;-73
2022/11/23 09:22:38;;;;;;;12.55;1.70;;;11.60;99.90;;;;;;5066614;28;20032;-74
2022/11/23 09:25:05;;;;;;;18.98;1.92;;;11.50;99.90;;;;;;5066335;28;20163;-74
2022/11/23 09:27:30;;;;;;;22.60;3.10;;;11.40;99.90;;;;;;5065648;28;20032;-74
2022/11/23 09:29:56;;;;;;;25.70;3.13;;;11.40;99.90;;;;;;5065530;28;20043;-74
2022/11/23 09:32:21;;;;;;;17.52;2.25;;;11.40;99.90;;;;;;5048199;28;20036;-75
2022/11/23 09:34:47;;;;;;;19.55;2.75;;;11.50;99.90;;;;;;5048491;28;20024;-75
2022/11/23 09:37:14;;;;;;;27.13;3.42;;;11.40;99.90;;;;;;5049033;28;20036;-75
2022/11/23 09:39:39;;;;;;;16.23;1.98;;;11.30;99.90;;;;;;5064437;28;20094;-76
2022/11/23 09:42:31;;;;;;;13.38;2.03;;;11.00;99.90;;;;;;5048248;28;20118;-75
2022/11/23 09:45:25;;;;;;;18.65;2.30;;;10.90;99.90;;;;;;5046600;28;20039;-75
2022/11/23 09:48:24;;;;;;;13.35;1.90;;;10.90;99.90;;;;;;5059171;28;20035;-76
2022/11/23 09:51:04;;;;;;;17.03;2.40;;;10.90;99.90;;;;;;5049040;28;20032;-75
2022/11/23 09:53:40;;;;;;;17.15;3.15;;;10.80;99.90;;;;;;5046232;28;20040;-76
2022/11/23 09:56:16;;;;;;;16.35;2.22;;;10.80;99.90;;;;;;5066026;28;20033;-75
2022/11/23 09:58:41;;;;;;;11.13;2.15;;;10.80;99.90;;;;;;5069703;28;20032;-76
2022/11/23 10:01:13;;;;;;;13.10;2.33;;;10.90;99.90;;;;;;5047693;28;20033;-76
2022/11/23 10:03:41;;;;;;;11.85;1.70;;;11.00;99.90;;;;;;5048473;28;20107;-75
2022/11/23 10:06:15;;;;;;;12.45;2.45;;;11.00;99.90;;;;;;5066781;28;20682;-77
2022/11/23 10:09:12;;;;;;;16.02;2.85;;;11.00;99.90;;;;;;5065872;28;20032;-76
2022/11/23 10:12:04;;;;;;;16.02;2.38;;;11.00;99.90;;;;;;5063131;28;20028;-77
2022/11/23 10:14:47;;;;;;;9.88;2.10;;;10.90;99.90;;;;;;5062898;28;20715;-73
2022/11/23 10:17:51;;;;;;;10.45;1.83;;;10.90;99.90;;;;;;5046256;28;20036;-76
2022/11/23 10:20:31;;;;;;;9.93;2.45;;;10.80;99.90;;;;;;5045469;28;20074;-76
2022/11/23 10:22:58;;;;;;;15.27;2.50;;;10.70;99.90;;;;;;5048802;28;20027;-76
2022/11/23 10:25:26;;;;;;;16.45;2.13;;;10.80;99.90;;;;;;5066931;28;20029;-76
2022/11/23 10:28:01;;;;;;;10.38;1.60;;;10.90;99.90;;;;;;5066175;28;20134;-76
2022/11/23 10:30:26;;;;;;;8.20;1.77;;;11.00;99.90;;;;;;5056643;28;20024;-73
2022/11/23 10:33:22;;;;;;;13.75;1.55;;;11.10;99.90;;;;;;5042286;28;20036;-75
2022/11/23 10:35:48;;;;;;;9.43;1.45;;;11.10;99.90;;;;;;5060838;28;20055;-75
2022/11/23 10:38:14;;;;;;;11.77;1.65;;;11.10;99.90;;;;;;5063258;28;20042;-75
2022/11/23 10:40:49;;;;;;;9.80;1.30;;;11.20;99.90;;;;;;5063811;28;20032;-74
2022/11/23 10:43:21;;;;;;;7.82;1.00;;;11.30;99.90;;;;;;5065194;28;20033;-73
2022/11/23 10:45:47;;;;;;;8.77;1.25;;;11.40;99.90;;;;;;5042835;28;20032;-74
2022/11/23 10:48:33;;;;;;;8.77;1.45;;;11.30;99.90;;;;;;5062695;28;20039;-74
2022/11/23 10:51:30;;;;;;;7.75;1.20;;;11.20;99.90;;;;;;5061881;28;20036;-74
2022/11/23 10:54:01;;;;;;;7.35;1.23;;;11.40;99.90;;;;;;5048351;28;20479;-74
2022/11/23 10:56:29;;;;;;;8.35;1.23;;;11.60;99.90;;;;;;5066188;28;20160;-74
2022/11/23 10:58:55;;;;;;;8.45;1.30;;;11.90;99.90;;;;;;5066395;28;20041;-76
2022/11/23 11:01:23;;;;;;;6.30;1.35;;;12.40;99.90;;;;;;5065614;28;20032;-74
2022/11/23 11:03:51;;;;;;;9.13;1.35;;;12.10;99.90;;;;;;5071510;28;20017;-74
2022/11/23 11:06:28;;;;;;;7.82;1.48;;;11.80;99.90;;;;;;5042943;28;20402;-75
2022/11/23 11:08:56;;;;;;;9.93;1.60;;;11.50;99.90;;;;;;5060383;28;20083;-73
2022/11/23 11:11:27;;;;;;;7.18;1.13;;;11.30;99.90;;;;;;5065617;28;20032;-74
2022/11/23 11:14:22;;;;;;;6.93;1.30;;;11.10;99.90;;;;;;5047594;28;20028;-73
2022/11/23 11:16:49;;;;;;;7.40;1.20;;;10.90;99.90;;;;;;5065258;28;20036;-73
2022/11/23 11:19:28;;;;;;;10.63;1.50;;;10.90;99.90;;;;;;5065214;28;20028;-74
2022/11/23 11:21:54;;;;;;;11.00;1.80;;;11.00;99.90;;;;;;5065686;28;20494;-73
2022/11/23 11:24:31;;;;;;;8.98;1.17;;;10.90;99.90;;;;;;5046366;28;20134;-73
2022/11/23 11:27:03;;;;;;;10.20;1.75;;;10.70;99.90;;;;;;5047770;28;20131;-73
2022/11/23 11:29:44;;;;;;;12.25;1.52;;;10.60;99.90;;;;;;5066034;28;20024;-74
2022/11/23 11:32:12;;;;;;;9.73;1.75;;;10.60;99.90;;;;;;5057963;28;20161;-74
2022/11/23 11:35:07;;;;;;;10.57;2.20;;;10.70;99.90;;;;;;5065464;28;20067;-74
2022/11/23 11:37:44;;;;;;;13.52;2.20;;;10.70;99.90;;;;;;5065031;28;20270;-72
2022/11/23 11:40:19;;;;;;;12.15;2.17;;;10.60;99.90;;;;;;5064408;28;20024;-74
2022/11/23 11:42:55;;;;;;;10.15;1.92;;;10.70;99.90;;;;;;5065800;28;20035;-73
2022/11/23 11:45:25;;;;;;;10.73;2.00;;;10.60;99.90;;;;;;5047457;28;20043;-73
2022/11/23 11:48:09;;;;;;;;;;;10.70;99.90;;;;;;5064027;28;20116;-72
2022/11/23 11:50:55;;;;;;;12.15;2.25;;;10.60;99.90;;;;;;5059991;28;20019;-72
2022/11/23 11:53:39;;;;;;;11.65;2.45;;;10.60;99.90;;;;;;5038272;28;20067;-72
2022/11/23 11:56:29;;;;;;;9.43;1.75;;;10.70;99.90;;;;;;5065639;28;20044;-73
2022/11/23 11:59:02;;;;;;;12.13;2.15;;;10.80;99.90;;;;;;5062162;28;20032;-73
2022/11/23 12:01:56;;;;;;;15.18;2.40;;;10.80;99.90;;;;;;5065610;28;20642;-72
2022/11/23 12:06:41;;;;;;;12.00;1.75;;;10.80;99.90;;;;;;5104363;27;20767;-72
2022/11/23 12:09:18;;;;;;;12.63;1.77;;;10.90;99.90;;;;;;5103545;28;20499;-72
2022/11/23 12:11:44;;;;;;;16.77;2.35;;;10.90;99.90;;;;;;5115537;28;20027;-73
2022/11/23 12:14:13;;;;;;;12.57;2.45;;;10.90;99.90;;;;;;5119057;28;20031;-72
2022/11/23 12:17:29;;;;;;;12.20;2.95;;;10.90;99.90;;;;;;5103636;28;20047;-72
2022/11/23 12:20:41;;;;;;;13.43;1.92;;;11.00;99.90;;;;;;5079592;28;20046;-73
2022/11/23 12:23:26;;;;;;;18.52;2.53;;;10.90;99.90;;;;;;5059874;28;20020;-72
2022/11/23 12:26:29;;;;;;;14.32;1.80;;;10.90;99.90;;;;;;5058234;28;20039;-71
2022/11/23 12:29:17;;;;;;;16.20;2.20;;;10.80;99.90;;;;;;5088796;28;20048;-73
2022/11/23 12:31:54;;;;;;;14.27;2.47;;;10.90;99.90;;;;;;5096787;28;20042;-73
2022/11/23 12:35:09;;;;;;;17.73;2.78;;;11.00;99.90;;;;;;5098255;28;20140;-73
2022/11/23 12:37:50;;;;;;;14.98;2.40;;;11.00;99.90;;;;;;5096272;28;20601;-73
2022/11/23 12:42:51;;;;;;;15.18;2.83;;;11.10;99.90;;;;;;5048168;28;20586;-70
2022/11/23 12:45:21;;;;;;;16.30;2.58;;;11.10;99.90;;;;;;5072729;28;20045;-72
2022/11/23 12:48:10;;;;;;;17.45;2.60;;;11.30;99.90;;;;;;5043500;28;20025;-73
2022/11/23 12:51:07;;;;;;;16.52;2.88;;;11.30;99.90;;;;;;5043625;28;20091;-72
2022/11/23 12:53:53;;;;;;;14.68;2.70;;;11.30;99.90;;;;;;5043792;28;20068;-72
2022/11/23 12:56:45;;;;;;;20.73;3.00;;;11.40;99.90;;;;;;5043814;28;20029;-72
2022/11/23 12:59:13;;;;;;;18.92;3.10;;;11.40;99.90;;;;;;5023475;28;20037;-72